Time;durP1;ratioP1;P1;durP2;ratioP2;P2;SDS_P1;SDS_P2;PMS_P1;PMS_P2;Temp;Humidity;BMP_temperature;BMP_pressure;BME280_temperature;BME280_humidity;BME280_pressure;Samples;Min_cycle;Max_cycle;Signal;HPM_P1;HPM_P2
2023/06/10 00:03:43;;;;;;;10.70;7.05;;;17.50;99.90;;;;;;10417061;28;20257;-93
2023/06/10 00:08:47;;;;;;;7.78;6.45;;;17.50;99.90;;;;;;10418466;28;20220;-94
2023/06/10 00:13:50;;;;;;;7.82;6.85;;;17.50;99.90;;;;;;10418575;28;20191;-94
2023/06/10 00:18:55;;;;;;;7.35;5.88;;;17.50;99.90;;;;;;10400365;28;20265;-94
2023/06/10 00:24:01;;;;;;;11.43;5.63;;;17.40;99.90;;;;;;10401025;28;20207;-93
2023/06/10 00:29:06;;;;;;;7.05;6.30;;;17.40;99.90;;;;;;10418158;28;20212;-93
2023/06/10 00:34:08;;;;;;;6.40;5.80;;;17.40;99.90;;;;;;10418046;28;20610;-94
2023/06/10 00:39:11;;;;;;;10.60;8.40;;;17.40;99.90;;;;;;10417843;28;20357;-93
2023/06/10 00:44:14;;;;;;;8.60;7.75;;;17.40;99.90;;;;;;10417701;28;20255;-94
2023/06/10 00:49:17;;;;;;;8.15;5.95;;;17.40;99.90;;;;;;10399131;28;20224;-95
2023/06/10 00:54:20;;;;;;;10.30;8.32;;;17.50;99.90;;;;;;10417161;28;20250;-94
2023/06/10 00:59:25;;;;;;;7.45;6.75;;;17.50;99.90;;;;;;10416240;28;20211;-93
2023/06/10 01:04:28;;;;;;;10.00;8.15;;;17.40;99.90;;;;;;10415617;28;20212;-93
2023/06/10 01:09:57;;;;;;;7.63;5.88;;;17.40;99.90;;;;;;10416714;28;20211;-94
2023/06/10 01:15:01;;;;;;;7.25;6.45;;;17.40;99.90;;;;;;10416059;28;20263;-93
2023/06/10 01:20:04;;;;;;;8.70;6.22;;;17.30;99.90;;;;;;10413637;28;20238;-93
2023/06/10 01:25:07;;;;;;;8.52;6.78;;;17.30;99.90;;;;;;10398333;28;20286;-94
2023/06/10 01:30:17;;;;;;;13.80;8.30;;;17.20;99.90;;;;;;10415667;28;20289;-93
2023/06/10 01:35:24;;;;;;;9.63;6.60;;;17.10;99.90;;;;;;10413435;28;20270;-94
2023/06/10 01:40:28;;;;;;;6.22;5.72;;;17.10;99.90;;;;;;10415647;28;20196;-93
2023/06/10 01:45:31;;;;;;;8.35;7.35;;;17.10;99.90;;;;;;10413365;28;20204;-93
2023/06/10 01:50:34;;;;;;;9.45;7.22;;;17.00;99.90;;;;;;10413339;28;20250;-94
2023/06/10 01:55:36;;;;;;;11.77;7.80;;;16.90;99.90;;;;;;10413383;28;20231;-94
2023/06/10 02:00:39;;;;;;;5.82;5.32;;;16.80;99.90;;;;;;10412908;28;20261;-92
2023/06/10 02:05:43;;;;;;;10.55;6.45;;;16.70;99.90;;;;;;10412692;28;20207;-94
2023/06/10 02:10:46;;;;;;;9.63;7.05;;;16.70;99.90;;;;;;10414494;28;20215;-94
2023/06/10 02:15:48;;;;;;;12.82;7.70;;;16.60;99.90;;;;;;10414156;28;20558;-94
2023/06/10 02:20:51;;;;;;;5.75;5.10;;;16.50;99.90;;;;;;10414029;28;20261;-94
2023/06/10 02:25:54;;;;;;;10.13;7.95;;;16.50;99.90;;;;;;10413798;28;20548;-93
2023/06/10 02:30:57;;;;;;;15.98;8.60;;;16.50;99.90;;;;;;10411864;28;20292;-94
2023/06/10 02:36:00;;;;;;;7.45;6.75;;;16.50;99.90;;;;;;10395819;28;20230;-94
2023/06/10 02:41:03;;;;;;;6.82;5.35;;;16.50;99.90;;;;;;10411620;28;20262;-93
2023/06/10 02:46:06;;;;;;;10.20;7.28;;;16.60;99.90;;;;;;10395197;28;20207;-94
2023/06/10 02:51:10;;;;;;;8.23;6.85;;;16.50;99.90;;;;;;10395550;28;20253;-93
2023/06/10 02:56:17;;;;;;;10.55;7.45;;;16.50;99.90;;;;;;10411278;28;20207;-94
2023/06/10 03:01:20;;;;;;;8.73;7.63;;;16.50;99.90;;;;;;10401309;28;20265;-94
2023/06/10 03:06:35;;;;;;;11.68;8.38;;;16.50;99.90;;;;;;10419655;28;20207;-94
2023/06/10 03:11:50;;;;;;;7.05;6.35;;;16.40;99.90;;;;;;10419416;28;20716;-93
2023/06/10 03:16:54;;;;;;;7.25;6.57;;;16.40;99.90;;;;;;10419375;28;20204;-95
2023/06/10 03:22:13;;;;;;;7.05;6.35;;;16.50;99.90;;;;;;10419411;28;20207;-95
2023/06/10 03:27:36;;;;;;;6.78;6.07;;;16.60;99.90;;;;;;10403055;28;20257;-93
2023/06/10 03:32:43;;;;;;;6.72;5.60;;;16.60;99.90;;;;;;10402233;28;20235;-94
2023/06/10 03:37:49;;;;;;;9.77;7.70;;;16.60;99.90;;;;;;10418301;28;20269;-94
2023/06/10 03:42:51;;;;;;;6.82;6.15;;;16.70;99.90;;;;;;10418419;28;20211;-94
2023/06/10 03:47:55;;;;;;;13.02;8.02;;;16.70;99.90;;;;;;10401576;28;20686;-95
2023/06/10 03:53:04;;;;;;;8.02;5.90;;;16.70;99.90;;;;;;10401562;28;20227;-95
2023/06/10 03:58:07;;;;;;;6.72;5.15;;;16.80;99.90;;;;;;10417673;28;20579;-94
2023/06/10 04:03:14;;;;;;;8.73;7.15;;;16.90;99.90;;;;;;10417180;28;20203;-93
2023/06/10 04:08:23;;;;;;;9.85;6.38;;;17.10;99.40;;;;;;10401209;28;20203;-94
2023/06/10 04:13:27;;;;;;;9.85;7.53;;;17.20;99.20;;;;;;10416891;28;20254;-94
2023/06/10 04:18:33;;;;;;;9.55;7.25;;;17.40;97.30;;;;;;10416638;28;20947;-93
2023/06/10 04:23:40;;;;;;;6.75;5.88;;;17.40;96.70;;;;;;10400402;28;20215;-94
2023/06/10 04:28:45;;;;;;;10.40;7.20;;;17.50;97.50;;;;;;10416704;28;20261;-93
2023/06/10 04:33:48;;;;;;;8.50;6.55;;;17.70;96.20;;;;;;10392201;28;20232;-93
2023/06/10 04:38:52;;;;;;;12.18;6.70;;;17.90;96.50;;;;;;10377307;28;20555;-93
2023/06/10 04:43:55;;;;;;;9.52;7.13;;;18.00;96.40;;;;;;10391743;28;20200;-94
2023/06/10 04:48:58;;;;;;;14.95;7.50;;;18.10;94.30;;;;;;10390828;28;20216;-93
2023/06/10 04:54:03;;;;;;;9.55;6.45;;;18.20;95.20;;;;;;10376248;28;20574;-93
2023/06/10 04:59:06;;;;;;;4.45;4.05;;;18.30;94.10;;;;;;10391121;28;20200;-94
2023/06/10 05:04:09;;;;;;;9.73;5.88;;;18.40;95.30;;;;;;10376464;28;20247;-93
2023/06/10 05:09:11;;;;;;;7.25;5.35;;;18.60;94.10;;;;;;10375986;28;20201;-93
2023/06/10 05:14:18;;;;;;;7.15;5.53;;;18.70;92.90;;;;;;10374924;28;20224;-93
2023/06/10 05:19:21;;;;;;;8.95;6.35;;;18.90;92.70;;;;;;10375212;28;20200;-93
2023/06/10 05:24:24;;;;;;;10.00;6.03;;;18.90;91.60;;;;;;10374889;28;20254;-94
2023/06/10 05:29:26;;;;;;;14.43;5.85;;;19.10;91.60;;;;;;10379694;28;20704;-93
2023/06/10 05:34:31;;;;;;;8.57;5.82;;;19.30;90.60;;;;;;10397497;28;20643;-93
2023/06/10 05:39:37;;;;;;;7.78;5.97;;;19.50;91.60;;;;;;10415379;28;20204;-94
2023/06/10 05:44:40;;;;;;;13.15;5.95;;;19.60;90.30;;;;;;10415400;28;20612;-94
2023/06/10 05:49:42;;;;;;;6.72;5.45;;;19.70;89.90;;;;;;10415689;28;20199;-94
2023/06/10 05:54:45;;;;;;;6.88;5.80;;;19.90;89.90;;;;;;10397348;28;20285;-94
2023/06/10 05:59:48;;;;;;;9.45;6.32;;;20.00;88.40;;;;;;10415646;28;20273;-93
2023/06/10 06:04:50;;;;;;;9.23;5.43;;;20.10;86.60;;;;;;10414531;28;20195;-94
2023/06/10 06:09:53;;;;;;;8.10;5.07;;;20.30;87.60;;;;;;10414931;28;20192;-94
2023/06/10 06:14:55;;;;;;;8.40;5.70;;;20.30;84.20;;;;;;10373369;28;20200;-95
2023/06/10 06:19:58;;;;;;;7.18;5.63;;;20.50;85.70;;;;;;10374399;28;20616;-94
2023/06/10 06:25:01;;;;;;;8.27;5.15;;;20.50;78.00;;;;;;10372888;28;20201;-93
2023/06/10 06:30:05;;;;;;;8.13;5.22;;;20.60;79.10;;;;;;10355598;28;20262;-95
2023/06/10 06:35:08;;;;;;;8.52;5.55;;;20.70;79.30;;;;;;10372078;28;20200;-94
2023/06/10 06:40:12;;;;;;;13.05;6.78;;;20.90;77.80;;;;;;10372852;28;20200;-95
2023/06/10 06:45:15;;;;;;;5.50;5.00;;;20.90;79.80;;;;;;10372470;28;20201;-94
2023/06/10 06:50:18;;;;;;;15.13;6.43;;;21.00;81.10;;;;;;10371310;28;20555;-94
2023/06/10 06:55:20;;;;;;;13.27;6.35;;;21.20;79.50;;;;;;10372389;28;20267;-94
2023/06/10 07:00:23;;;;;;;5.18;4.68;;;21.30;75.80;;;;;;10372299;28;20540;-93
2023/06/10 07:05:27;;;;;;;10.15;5.78;;;21.40;71.30;;;;;;10354134;28;20212;-93
2023/06/10 07:10:30;;;;;;;7.40;5.18;;;21.60;72.30;;;;;;10358792;28;20238;-93
2023/06/10 07:15:33;;;;;;;6.50;4.57;;;22.10;90.40;;;;;;10413518;28;20200;-95
2023/06/10 07:20:38;;;;;;;13.50;5.75;;;;;;;;;;10394690;28;20226;-96
2023/06/10 07:25:44;;;;;;;5.50;4.95;;;;;;;;;;10413044;28;20207;-94
2023/06/10 07:30:47;;;;;;;13.40;6.60;;;22.30;67.50;;;;;;10411709;28;20646;-94
2023/06/10 07:35:49;;;;;;;8.63;5.10;;;22.30;65.60;;;;;;10411330;28;20192;-94
2023/06/10 07:40:52;;;;;;;6.95;5.32;;;22.50;66.30;;;;;;10411721;28;20246;-94
2023/06/10 07:45:55;;;;;;;4.68;4.28;;;22.80;61.30;;;;;;10397654;28;20633;-95
2023/06/10 07:50:58;;;;;;;13.88;6.40;;;23.00;61.40;;;;;;10419791;28;20238;-93
2023/06/10 07:56:00;;;;;;;11.82;5.32;;;23.20;57.60;;;;;;10418426;28;20249;-95
2023/06/10 08:01:03;;;;;;;4.72;4.20;;;23.70;71.70;;;;;;10417954;28;20593;-93
2023/06/10 08:06:05;;;;;;;10.77;5.57;;;23.60;54.80;;;;;;10418699;28;20215;-94
2023/06/10 08:11:08;;;;;;;12.30;5.40;;;23.80;53.30;;;;;;10417524;28;20273;-94
2023/06/10 08:16:11;;;;;;;10.32;5.25;;;24.10;54.10;;;;;;10417966;28;20200;-95
2023/06/10 08:21:14;;;;;;;10.93;5.03;;;24.20;49.90;;;;;;10418855;28;20238;-94
2023/06/10 08:26:16;;;;;;;4.40;4.00;;;24.30;46.10;;;;;;10418662;28;20281;-94
2023/06/10 08:31:19;;;;;;;10.82;5.55;;;24.50;46.10;;;;;;10417527;28;20235;-95
2023/06/10 08:36:22;;;;;;;7.60;5.07;;;24.70;40.00;;;;;;10416724;28;20245;-95
2023/06/10 08:41:28;;;;;;;8.23;4.63;;;24.80;38.50;;;;;;10417826;28;20200;-94
2023/06/10 08:46:32;;;;;;;9.85;5.18;;;24.90;36.50;;;;;;10416218;28;20252;-95
2023/06/10 08:51:36;;;;;;;15.27;5.25;;;25.10;35.90;;;;;;10417332;28;20273;-94
2023/06/10 08:56:40;;;;;;;5.22;3.95;;;25.40;31.50;;;;;;10416097;28;20625;-94
2023/06/10 09:01:44;;;;;;;7.72;4.20;;;25.30;43.40;;;;;;10399203;28;20266;-95
2023/06/10 09:06:48;;;;;;;17.33;4.80;;;25.30;44.00;;;;;;10416626;28;20203;-95
2023/06/10 09:11:51;;;;;;;6.25;4.45;;;25.60;47.50;;;;;;10417086;28;20238;-93
2023/06/10 09:16:56;;;;;;;12.10;5.75;;;25.50;42.20;;;;;;10415185;28;20212;-93
2023/06/10 09:21:59;;;;;;;4.15;3.78;;;25.70;44.80;;;;;;10398890;28;20570;-94
2023/06/10 09:27:06;;;;;;;6.47;4.53;;;25.90;49.10;;;;;;10416223;28;20254;-95
2023/06/10 09:32:09;;;;;;;5.32;4.00;;;25.90;36.30;;;;;;10415444;28;20231;-95
2023/06/10 09:37:13;;;;;;;6.38;5.22;;;25.50;35.20;;;;;;10415207;28;20208;-95
2023/06/10 09:42:18;;;;;;;8.15;4.80;;;25.40;31.80;;;;;;10397989;28;20609;-94
2023/06/10 09:47:22;;;;;;;4.07;3.53;;;25.50;34.40;;;;;;10414343;28;20208;-95
2023/06/10 09:52:27;;;;;;;6.03;4.85;;;25.70;37.00;;;;;;10397822;28;20211;-94
2023/06/10 09:57:35;;;;;;;4.57;4.18;;;25.70;29.00;;;;;;10397877;28;20565;-95
2023/06/10 10:02:47;;;;;;;8.57;4.13;;;26.00;26.30;;;;;;10397278;28;20200;-96
2023/06/10 10:07:50;;;;;;;6.25;4.25;;;26.00;24.00;;;;;;10414393;28;20195;-94
2023/06/10 10:12:58;;;;;;;5.32;4.55;;;25.90;23.80;;;;;;10414062;28;20216;-94
2023/06/10 10:18:09;;;;;;;11.25;5.03;;;25.70;20.20;;;;;;10414080;28;20222;-96
2023/06/10 10:23:15;;;;;;;4.63;4.22;;;26.00;20.20;;;;;;10413392;28;20238;-95
2023/06/10 10:28:21;;;;;;;5.95;4.28;;;26.30;16.30;;;;;;10395742;28;20547;-94
2023/06/10 10:33:33;;;;;;;10.05;3.65;;;;;;;;;;10413414;28;20274;-94
2023/06/10 10:38:36;;;;;;;4.10;3.70;;;26.20;51.50;;;;;;10413321;28;20208;-94
2023/06/10 10:43:39;;;;;;;8.57;4.72;;;26.30;36.10;;;;;;10395919;28;20222;-95
2023/06/10 10:48:42;;;;;;;11.95;5.30;;;26.40;37.40;;;;;;10412899;28;20228;-93
2023/06/10 10:54:13;;;;;;;8.15;5.20;;;26.30;41.40;;;;;;10411346;28;20270;-93
2023/06/10 10:59:19;;;;;;;4.28;3.88;;;26.50;43.30;;;;;;10395121;28;20204;-95
2023/06/10 11:04:22;;;;;;;4.20;3.72;;;26.50;52.70;;;;;;10411433;28;20207;-95
2023/06/10 11:09:28;;;;;;;4.78;4.38;;;26.30;44.60;;;;;;10412344;28;20207;-94
2023/06/10 11:14:32;;;;;;;11.45;5.18;;;26.40;46.60;;;;;;10394955;28;20223;-94
2023/06/10 11:19:46;;;;;;;10.00;4.63;;;;;;;;;;10413385;28;20631;-94
2023/06/10 11:24:50;;;;;;;4.90;4.50;;;26.70;18.40;;;;;;10402539;28;20200;-94
2023/06/10 11:30:05;;;;;;;8.85;5.10;;;26.70;19.00;;;;;;10418745;28;20261;-94
2023/06/10 11:35:08;;;;;;;5.32;4.25;;;26.70;18.20;;;;;;10418630;28;20223;-94
2023/06/10 11:40:12;;;;;;;5.30;4.60;;;26.70;17.70;;;;;;10418625;28;20207;-95
2023/06/10 11:45:16;;;;;;;6.88;3.80;;;26.70;15.50;;;;;;10418027;28;20620;-95
2023/06/10 11:50:28;;;;;;;10.25;5.07;;;26.80;17.00;;;;;;10401959;28;20204;-94
2023/06/10 11:55:48;;;;;;;4.60;4.20;;;26.90;16.00;;;;;;10419411;28;20242;-95
2023/06/10 12:00:50;;;;;;;7.13;4.47;;;27.00;13.10;;;;;;10419026;28;20774;-94
2023/06/10 12:05:58;;;;;;;4.80;4.40;;;27.00;13.90;;;;;;10417048;28;20212;-94
2023/06/10 12:11:01;;;;;;;7.90;4.15;;;27.00;15.70;;;;;;10418886;28;20195;-94
2023/06/10 12:16:10;;;;;;;4.38;3.85;;;27.00;19.20;;;;;;10418685;28;20273;-95
2023/06/10 12:21:25;;;;;;;4.38;3.97;;;27.10;27.80;;;;;;10416535;28;20203;-94
2023/06/10 12:26:42;;;;;;;47.60;7.07;;;27.00;27.40;;;;;;10418273;28;20233;-94
2023/06/10 12:31:58;;;;;;;15.27;4.60;;;26.80;27.80;;;;;;10415911;28;20231;-95
2023/06/10 12:37:04;;;;;;;5.13;4.57;;;26.90;29.10;;;;;;10417438;28;20199;-94
2023/06/10 12:42:09;;;;;;;5.68;3.50;;;26.90;32.00;;;;;;10417275;28;20208;-93
2023/06/10 12:47:12;;;;;;;9.82;4.20;;;26.90;32.30;;;;;;10399539;28;20208;-94
2023/06/10 12:52:15;;;;;;;9.88;4.32;;;26.90;27.90;;;;;;10416726;28;20223;-94
2023/06/10 12:57:17;;;;;;;7.25;3.45;;;27.00;29.20;;;;;;10417236;28;20613;-94
2023/06/10 13:02:20;;;;;;;4.07;3.67;;;27.00;29.20;;;;;;10399231;28;20628;-94
2023/06/10 13:07:23;;;;;;;6.68;4.88;;;26.90;30.00;;;;;;10415124;28;20208;-95
2023/06/10 13:12:28;;;;;;;4.50;4.10;;;27.00;27.60;;;;;;10416446;28;20269;-93
2023/06/10 13:17:51;;;;;;;6.28;3.90;;;27.00;29.80;;;;;;10416306;28;20203;-93
2023/06/10 13:22:54;;;;;;;5.30;3.83;;;26.80;29.10;;;;;;10414812;28;20203;-94
2023/06/10 13:27:57;;;;;;;12.68;4.20;;;26.90;28.20;;;;;;10415648;28;20567;-94
2023/06/10 13:33:00;;;;;;;5.43;4.30;;;26.80;26.70;;;;;;10415169;28;20228;-93
2023/06/10 13:38:03;;;;;;;5.35;4.22;;;26.90;28.90;;;;;;10415263;28;20235;-94
2023/06/10 13:43:05;;;;;;;8.15;4.00;;;26.80;32.70;;;;;;10414335;28;20207;-93
2023/06/10 13:48:08;;;;;;;3.85;3.50;;;26.90;28.70;;;;;;10414822;28;20618;-93
2023/06/10 13:53:11;;;;;;;5.10;4.10;;;26.70;34.20;;;;;;10414574;28;20269;-94
2023/06/10 13:58:14;;;;;;;5.80;3.72;;;26.60;31.00;;;;;;10413656;28;20581;-94
2023/06/10 14:03:16;;;;;;;6.30;3.90;;;26.50;28.50;;;;;;10395920;28;20215;-94
2023/06/10 14:08:20;;;;;;;16.17;3.97;;;26.40;29.30;;;;;;10396301;28;20215;-94
2023/06/10 14:13:23;;;;;;;3.95;3.33;;;26.40;26.20;;;;;;10411982;28;20223;-93
2023/06/10 14:18:25;;;;;;;7.78;4.32;;;26.50;34.70;;;;;;10413161;28;20250;-94
2023/06/10 14:23:28;;;;;;;9.02;4.30;;;26.40;28.90;;;;;;10413708;28;20677;-93
2023/06/10 14:28:31;;;;;;;5.60;3.70;;;26.30;27.90;;;;;;10395714;28;20504;-94
2023/06/10 14:33:33;;;;;;;6.82;4.00;;;26.30;27.30;;;;;;10412942;28;20290;-94
2023/06/10 14:38:36;;;;;;;7.70;3.53;;;26.20;35.00;;;;;;10413428;28;20219;-94
2023/06/10 14:43:39;;;;;;;6.32;3.30;;;26.10;29.00;;;;;;10394683;28;20215;-94
2023/06/10 14:48:41;;;;;;;6.72;3.78;;;26.20;31.90;;;;;;10410849;28;20663;-94
2023/06/10 14:53:45;;;;;;;3.47;3.15;;;26.20;28.90;;;;;;10411070;28;20216;-92
2023/06/10 14:58:47;;;;;;;3.97;3.67;;;26.10;30.50;;;;;;10411496;28;20200;-94
2023/06/10 15:03:50;;;;;;;5.38;3.55;;;26.00;34.10;;;;;;10412365;28;20570;-93
2023/06/10 15:08:53;;;;;;;4.72;3.08;;;26.00;33.00;;;;;;10395168;28;20257;-95
2023/06/10 15:13:55;;;;;;;4.03;3.15;;;26.00;32.30;;;;;;10411617;28;20246;-93
2023/06/10 15:18:58;;;;;;;5.53;3.40;;;26.00;33.30;;;;;;10412095;28;20215;-93
2023/06/10 15:24:00;;;;;;;4.07;3.67;;;25.90;27.60;;;;;;10411886;28;20269;-94
2023/06/10 15:29:04;;;;;;;5.45;3.80;;;25.90;34.60;;;;;;10411845;28;20258;-92
2023/06/10 15:34:08;;;;;;;4.47;3.63;;;25.70;27.80;;;;;;10394156;28;20771;-93
2023/06/10 15:39:11;;;;;;;5.28;3.22;;;25.70;34.30;;;;;;10411299;28;20621;-93
2023/06/10 15:44:13;;;;;;;5.55;4.22;;;25.60;28.90;;;;;;10411683;28;20604;-93
2023/06/10 15:49:16;;;;;;;4.78;3.33;;;25.60;28.50;;;;;;10409670;28;20243;-94
2023/06/10 15:54:19;;;;;;;6.05;2.70;;;25.60;33.00;;;;;;10411157;28;20249;-94
2023/06/10 15:59:21;;;;;;;3.47;3.17;;;25.50;33.20;;;;;;10411398;28;20542;-93
2023/06/10 16:04:24;;;;;;;7.38;3.30;;;25.40;26.40;;;;;;10410884;28;20246;-93
2023/06/10 16:09:26;;;;;;;4.78;4.38;;;25.30;31.50;;;;;;10417882;28;20269;-94
2023/06/10 16:14:29;;;;;;;4.20;3.70;;;25.40;27.20;;;;;;10416910;28;20228;-93
2023/06/10 16:19:32;;;;;;;4.15;3.72;;;25.40;29.90;;;;;;10418706;28;20608;-93
2023/06/10 16:24:34;;;;;;;6.78;3.40;;;25.40;36.90;;;;;;10418429;28;20246;-95
2023/06/10 16:29:37;;;;;;;6.80;4.20;;;25.40;24.80;;;;;;10417704;28;20228;-95
2023/06/10 16:34:39;;;;;;;5.32;4.63;;;25.50;34.60;;;;;;10417779;28;20254;-94
2023/06/10 16:39:42;;;;;;;5.22;3.08;;;25.60;38.90;;;;;;10417239;28;20204;-93
2023/06/10 16:44:45;;;;;;;8.13;4.10;;;25.50;25.90;;;;;;10416885;28;20277;-94
2023/06/10 16:49:47;;;;;;;8.82;3.38;;;25.60;30.40;;;;;;10419503;28;20258;-92
2023/06/10 16:54:52;;;;;;;6.82;3.58;;;25.60;32.00;;;;;;10401623;28;20227;-92
2023/06/10 16:59:55;;;;;;;9.13;3.28;;;25.40;33.40;;;;;;10420782;28;20218;-94
2023/06/10 17:04:57;;;;;;;4.35;4.05;;;25.30;27.20;;;;;;10417130;28;20207;-94
2023/06/10 17:10:00;;;;;;;5.13;3.80;;;25.20;42.20;;;;;;10416687;28;20555;-95
2023/06/10 17:15:03;;;;;;;6.65;3.92;;;25.10;37.40;;;;;;10398660;28;20220;-94
2023/06/10 17:20:06;;;;;;;7.13;3.90;;;25.00;35.30;;;;;;10397001;28;20258;-94
2023/06/10 17:25:09;;;;;;;8.57;4.18;;;24.90;34.50;;;;;;10381710;28;20199;-94
2023/06/10 17:30:12;;;;;;;6.45;3.28;;;24.70;29.20;;;;;;10415433;28;20236;-94
2023/06/10 17:35:15;;;;;;;4.38;3.25;;;24.50;28.10;;;;;;10416752;28;20207;-94
2023/06/10 17:40:18;;;;;;;6.63;3.63;;;24.40;30.20;;;;;;10401240;28;20539;-94
2023/06/10 17:45:22;;;;;;;7.25;3.13;;;24.30;34.00;;;;;;10416749;28;20234;-94
2023/06/10 17:50:24;;;;;;;4.95;3.08;;;24.00;30.60;;;;;;10399524;28;20310;-94
2023/06/10 17:55:27;;;;;;;6.03;2.65;;;24.10;34.40;;;;;;10414560;28;20228;-94
2023/06/10 18:00:30;;;;;;;6.63;2.88;;;24.00;33.90;;;;;;10397750;28;20249;-94
2023/06/10 18:05:32;;;;;;;4.68;2.55;;;23.90;33.00;;;;;;10397915;28;20269;-94
2023/06/10 18:10:35;;;;;;;6.47;2.47;;;23.70;33.30;;;;;;10414868;28;20200;-95
2023/06/10 18:15:37;;;;;;;3.22;2.92;;;23.30;32.50;;;;;;10415333;28;20270;-94
2023/06/10 18:20:40;;;;;;;7.70;2.83;;;23.10;37.00;;;;;;10414081;28;20203;-94
2023/06/10 18:25:43;;;;;;;8.77;2.97;;;22.40;35.50;;;;;;10417638;28;20207;-95
2023/06/10 18:30:46;;;;;;;5.82;2.20;;;;;;;;;;10416755;28;20227;-94
2023/06/10 18:35:51;;;;;;;3.15;2.30;;;;;;;;;;10417336;28;20271;-95
2023/06/10 18:40:53;;;;;;;2.97;2.30;;;21.60;9.90;;;;;;10395801;28;20208;-96
2023/06/10 18:45:58;;;;;;;7.35;2.92;;;21.50;10.60;;;;;;10412506;28;20208;-95
2023/06/10 18:51:00;;;;;;;5.18;2.70;;;21.30;13.00;;;;;;10412982;28;20560;-94
2023/06/10 18:56:03;;;;;;;5.47;3.00;;;21.00;11.50;;;;;;10412905;28;20215;-93
2023/06/10 19:01:05;;;;;;;4.70;2.58;;;21.00;15.00;;;;;;10412853;28;20195;-94
2023/06/10 19:06:08;;;;;;;2.78;2.30;;;20.60;13.60;;;;;;10411616;28;20621;-94
2023/06/10 19:11:12;;;;;;;2.88;2.40;;;20.50;12.80;;;;;;10394854;28;20570;-94
2023/06/10 19:16:15;;;;;;;3.22;2.22;;;20.20;18.10;;;;;;10412914;28;20273;-96
2023/06/10 19:21:17;;;;;;;2.78;2.17;;;20.10;12.70;;;;;;10394194;28;20234;-94
2023/06/10 19:26:20;;;;;;;4.43;2.70;;;19.90;15.80;;;;;;10412384;28;20215;-94
2023/06/10 19:31:23;;;;;;;14.45;2.67;;;19.80;13.30;;;;;;10411591;28;20281;-95
2023/06/10 19:36:25;;;;;;;5.80;2.95;;;19.70;15.50;;;;;;10412663;28;20278;-95
2023/06/10 19:41:28;;;;;;;9.95;3.10;;;;;;;;;;10414804;28;20211;-93
2023/06/10 19:46:31;;;;;;;27.63;3.28;;;19.40;17.50;;;;;;10419452;28;20258;-94
2023/06/10 19:51:34;;;;;;;3.63;2.75;;;19.20;17.50;;;;;;10402162;28;20230;-94
2023/06/10 19:56:37;;;;;;;5.18;2.55;;;19.00;20.30;;;;;;10418370;28;20623;-94
2023/06/10 20:01:39;;;;;;;4.43;2.53;;;18.90;22.20;;;;;;10418308;28;20199;-95
2023/06/10 20:06:42;;;;;;;2.97;2.38;;;18.80;21.10;;;;;;10418357;28;20212;-94
2023/06/10 20:11:45;;;;;;;6.30;2.33;;;18.80;23.70;;;;;;10419069;28;20192;-94
2023/06/10 20:16:47;;;;;;;5.00;2.13;;;18.90;27.20;;;;;;10417052;28;20586;-94
2023/06/10 20:21:50;;;;;;;4.07;2.08;;;18.60;24.80;;;;;;10418475;28;20204;-94
2023/06/10 20:26:53;;;;;;;4.13;2.88;;;18.40;25.90;;;;;;10418537;28;20573;-95
2023/06/10 20:31:55;;;;;;;10.18;2.42;;;18.50;37.90;;;;;;10401114;28;20232;-96
2023/06/10 20:36:58;;;;;;;3.00;2.80;;;18.40;28.70;;;;;;10400816;28;21076;-93
2023/06/10 20:42:01;;;;;;;3.78;2.60;;;18.30;35.20;;;;;;10416862;28;20215;-95
2023/06/10 20:47:04;;;;;;;2.70;2.03;;;18.20;32.90;;;;;;10418140;28;20627;-93
2023/06/10 20:52:07;;;;;;;3.42;2.25;;;18.10;34.50;;;;;;10416907;28;20581;-94
2023/06/10 20:57:09;;;;;;;4.85;2.25;;;18.10;34.10;;;;;;10416466;28;20266;-94
2023/06/10 21:02:12;;;;;;;2.67;2.35;;;18.00;34.90;;;;;;10382948;28;20230;-93
2023/06/10 21:07:14;;;;;;;3.45;2.97;;;18.00;35.20;;;;;;10416716;28;20570;-94
2023/06/10 21:12:17;;;;;;;9.80;2.83;;;18.00;36.00;;;;;;10416723;28;20242;-93
2023/06/10 21:17:20;;;;;;;2.97;2.78;;;17.90;37.50;;;;;;10416231;28;20215;-94
2023/06/10 21:22:22;;;;;;;5.63;3.13;;;17.90;43.40;;;;;;10398635;28;20191;-93
2023/06/10 21:27:25;;;;;;;4.72;2.00;;;17.80;38.70;;;;;;10416047;28;20192;-94
2023/06/10 21:32:31;;;;;;;4.97;3.20;;;17.70;38.70;;;;;;10414989;28;20235;-94
2023/06/10 21:37:34;;;;;;;7.45;2.33;;;17.70;43.20;;;;;;10413786;28;20223;-94
2023/06/10 21:42:36;;;;;;;4.22;2.30;;;17.60;41.60;;;;;;10397334;28;20220;-93
2023/06/10 21:47:39;;;;;;;4.88;2.53;;;;;;;;;;10414874;28;20219;-94
2023/06/10 21:52:42;;;;;;;2.30;2.10;;;17.50;41.70;;;;;;10412999;28;20564;-94
2023/06/10 21:57:45;;;;;;;4.60;2.25;;;17.40;46.00;;;;;;10414789;28;20219;-94
2023/06/10 22:02:47;;;;;;;4.95;2.70;;;17.40;47.80;;;;;;10412725;28;20230;-94
2023/06/10 22:07:51;;;;;;;7.50;2.65;;;17.30;53.10;;;;;;10414493;28;20188;-93
2023/06/10 22:12:53;;;;;;;4.43;2.03;;;17.30;48.60;;;;;;10396517;28;20269;-94
2023/06/10 22:17:56;;;;;;;5.43;2.28;;;17.20;45.60;;;;;;10413258;28;20694;-94
2023/06/10 22:22:58;;;;;;;4.75;2.20;;;17.20;48.70;;;;;;10413024;28;20230;-94
2023/06/10 22:28:01;;;;;;;5.15;2.05;;;17.00;49.90;;;;;;10414306;28;20204;-94
2023/06/10 22:33:04;;;;;;;4.68;2.35;;;17.00;55.20;;;;;;10413151;28;20258;-94
2023/06/10 22:38:07;;;;;;;5.18;2.38;;;16.80;50.00;;;;;;10413469;28;20223;-94
2023/06/10 22:43:11;;;;;;;6.30;2.55;;;16.60;52.80;;;;;;10413123;28;20212;-94
2023/06/10 22:48:14;;;;;;;2.45;2.08;;;16.70;56.60;;;;;;10411183;28;20215;-93
2023/06/10 22:53:17;;;;;;;3.72;2.22;;;16.60;62.00;;;;;;10412053;28;20673;-94
2023/06/10 22:58:21;;;;;;;3.30;3.00;;;;;;;;;;10412758;28;20280;-94
2023/06/10 23:03:23;;;;;;;3.55;2.53;;;17.00;95.80;;;;;;10411115;28;20204;-94
2023/06/10 23:08:26;;;;;;;3.60;2.65;;;16.80;94.60;;;;;;10412869;28;20608;-93
2023/06/10 23:13:28;;;;;;;2.50;2.30;;;16.60;93.90;;;;;;10412491;28;20199;-94
2023/06/10 23:18:32;;;;;;;3.00;2.50;;;16.50;77.30;;;;;;10417570;28;20254;-93
2023/06/10 23:23:36;;;;;;;9.07;2.58;;;16.50;69.50;;;;;;10420380;28;20199;-94
2023/06/10 23:28:39;;;;;;;4.97;2.50;;;16.40;69.30;;;;;;10419352;28;20254;-93
2023/06/10 23:33:42;;;;;;;4.70;2.42;;;16.30;67.50;;;;;;10377992;28;20224;-93
2023/06/10 23:38:44;;;;;;;2.53;2.22;;;16.20;70.00;;;;;;10379209;28;20220;-93
2023/06/10 23:43:47;;;;;;;4.28;2.13;;;16.20;80.60;;;;;;10378367;28;20204;-94
2023/06/10 23:48:50;;;;;;;3.28;2.20;;;16.30;79.80;;;;;;10379279;28;20257;-93
2023/06/10 23:53:53;;;;;;;5.03;2.65;;;16.20;67.40;;;;;;10377147;28;20577;-95
2023/06/10 23:58:55;;;;;;;8.15;2.75;;;16.10;68.10;;;;;;10378497;28;20232;-93
